Time;durP1;ratioP1;P1;durP2;ratioP2;P2;SDS_P1;SDS_P2;PMS_P1;PMS_P2;Temp;Humidity;BMP_temperature;BMP_pressure;BME280_temperature;BME280_humidity;BME280_pressure;Samples;Min_cycle;Max_cycle;Signal;HPM_P1;HPM_P2
2023/03/19 00:02:14;;;;;;;;;;;10.70;99.90;;;;;;5083710;28;20024;-65
2023/03/19 00:04:40;;;;;;;;;;;10.60;99.90;;;;;;5039017;28;19978;-68
2023/03/19 00:07:06;;;;;;;;;;;10.70;99.90;;;;;;5067752;28;19924;-65
2023/03/19 00:09:31;;;;;;;;;;;10.70;99.90;;;;;;5070200;28;19924;-66
2023/03/19 00:11:57;;;;;;;;;;;10.70;99.90;;;;;;5054430;28;19932;-65
2023/03/19 00:14:22;;;;;;;;;;;10.70;99.90;;;;;;5070601;28;19924;-66
2023/03/19 00:16:48;;;;;;;;;;;10.70;99.90;;;;;;5073068;28;19924;-66
2023/03/19 00:19:14;;;;;;;;;;;10.70;99.90;;;;;;5040152;28;19928;-66
2023/03/19 00:21:40;;;;;;;;;;;10.70;99.90;;;;;;5059635;28;20033;-66
2023/03/19 00:24:06;;;;;;;;;;;10.70;99.90;;;;;;5073894;28;20077;-67
2023/03/19 00:26:33;;;;;;;;;;;10.60;99.90;;;;;;5057026;28;19924;-66
2023/03/19 00:28:59;;;;;;;;;;;10.70;99.90;;;;;;5073197;28;19924;-66
2023/03/19 00:31:25;;;;;;;;;;;10.60;99.90;;;;;;5058402;28;20011;-66
2023/03/19 00:33:52;;;;;;;;;;;10.60;99.90;;;;;;5073439;28;19928;-66
2023/03/19 00:36:17;;;;;;;;;;;10.50;99.90;;;;;;5056567;28;20382;-66
2023/03/19 00:38:43;;;;;;;;;;;10.50;99.90;;;;;;5074083;28;19971;-66
2023/03/19 00:41:09;;;;;;;;;;;10.50;99.90;;;;;;5073250;28;19973;-66
2023/03/19 00:43:36;;;;;;;;;;;10.50;99.90;;;;;;5073459;28;19944;-66
2023/03/19 00:46:02;;;;;;;;;;;10.50;99.90;;;;;;5055509;28;20003;-66
2023/03/19 00:48:27;;;;;;;;;;;10.50;99.90;;;;;;5072902;28;20011;-66
2023/03/19 00:50:53;;;;;;;;;;;10.50;99.90;;;;;;5093891;28;20302;-66
2023/03/19 00:53:19;;;;;;;;;;;10.60;99.90;;;;;;5065767;28;19928;-66
2023/03/19 00:55:45;;;;;;;;;;;10.60;99.90;;;;;;5094278;28;19928;-66
2023/03/19 00:58:10;;;;;;;;;;;10.60;99.90;;;;;;5070255;28;19931;-66
2023/03/19 01:00:37;;;;;;;;;;;10.60;99.90;;;;;;5075739;28;20370;-65
2023/03/19 01:03:03;;;;;;;;;;;10.60;99.90;;;;;;5093373;28;19928;-65
2023/03/19 01:05:29;;;;;;;;;;;10.60;99.90;;;;;;5076085;28;20262;-66
2023/03/19 01:07:54;;;;;;;;;;;10.60;99.90;;;;;;5088940;28;19924;-66
2023/03/19 01:10:22;;;;;;;;;;;10.60;99.90;;;;;;5063001;28;19928;-66
2023/03/19 01:12:48;;;;;;;;;;;10.60;99.90;;;;;;5087726;28;20360;-65
2023/03/19 01:15:14;;;;;;;;;;;10.70;99.90;;;;;;5088380;28;19928;-66
2023/03/19 01:17:39;;;;;;;;;;;10.70;99.90;;;;;;5082079;28;19925;-65
2023/03/19 01:20:11;;;;;;;;;;;10.70;99.90;;;;;;5055170;28;19932;-65
2023/03/19 01:22:42;;;;;;;;;;;10.70;99.90;;;;;;5093379;28;19932;-65
2023/03/19 01:25:10;;;;;;;;;;;10.70;99.90;;;;;;5090454;28;19924;-65
2023/03/19 01:27:35;;;;;;;;;;;10.70;99.90;;;;;;5075194;28;20018;-65
2023/03/19 01:30:01;;;;;;;;;;;10.70;99.90;;;;;;5085285;28;20050;-65
2023/03/19 01:32:26;;;;;;;;;;;10.70;99.90;;;;;;5093576;28;19931;-65
2023/03/19 01:34:52;;;;;;;;;;;10.70;99.90;;;;;;5093532;28;19931;-65
2023/03/19 01:37:18;;;;;;;;;;;10.70;99.90;;;;;;5079046;28;19928;-65
2023/03/19 01:39:44;;;;;;;;;;;10.60;99.90;;;;;;5072858;28;19935;-65
2023/03/19 01:42:09;;;;;;;;;;;10.60;99.90;;;;;;5084342;28;19925;-66
2023/03/19 01:44:36;;;;;;;;;;;10.60;99.90;;;;;;5072683;28;19935;-65
2023/03/19 01:47:04;;;;;;;;;;;10.50;99.90;;;;;;5069176;28;19924;-65
2023/03/19 01:49:30;;;;;;;;;;;10.50;99.90;;;;;;5072833;28;20344;-64
2023/03/19 01:51:57;;;;;;;;;;;10.50;99.90;;;;;;5067932;28;19932;-68
2023/03/19 01:54:24;;;;;;;;;;;10.50;99.90;;;;;;5054622;28;19931;-64
2023/03/19 01:56:52;;;;;;;;;;;10.60;99.90;;;;;;5046746;28;20281;-65
2023/03/19 01:59:21;;;;;;;;;;;10.60;99.90;;;;;;5072095;28;19968;-64
2023/03/19 02:01:52;;;;;;;;;;;10.60;99.90;;;;;;5060838;28;20389;-65
2023/03/19 02:04:18;;;;;;;;;;;10.60;99.90;;;;;;5071898;28;19995;-64
2023/03/19 02:06:44;;;;;;;;;;;10.70;99.90;;;;;;5036952;28;20386;-64
2023/03/19 02:09:10;;;;;;;;;;;10.70;99.90;;;;;;5071394;28;20023;-64
2023/03/19 02:11:36;;;;;;;;;;;10.70;99.90;;;;;;5072260;28;20011;-64
2023/03/19 02:14:02;;;;;;;;;;;10.70;99.90;;;;;;5054262;28;19924;-66
2023/03/19 02:16:27;;;;;;;;;;;10.60;99.90;;;;;;5054616;28;20001;-65
2023/03/19 02:18:54;;;;;;;;;;;10.60;99.90;;;;;;5054130;28;20283;-65
2023/03/19 02:21:20;;;;;;;;;;;10.60;99.90;;;;;;5054485;28;20374;-65
2023/03/19 02:23:52;;;;;;;;;;;10.60;99.90;;;;;;5071765;28;19925;-65
2023/03/19 02:26:19;;;;;;;;;;;10.60;99.90;;;;;;5053577;28;20429;-64
2023/03/19 02:28:46;;;;;;;;;;;10.60;99.90;;;;;;5071328;28;19962;-65
2023/03/19 02:31:13;;;;;;;;;;;10.60;99.90;;;;;;5071329;28;20004;-65
2023/03/19 02:33:39;;;;;;;;;;;10.60;99.90;;;;;;5071680;28;19985;-64
2023/03/19 02:36:05;;;;;;;;;;;10.60;99.90;;;;;;5071738;28;19928;-67
2023/03/19 02:38:32;;;;;;;;;;;10.50;99.90;;;;;;5052929;28;20405;-65
2023/03/19 02:40:58;;;;;;;;;;;10.50;99.90;;;;;;5055607;28;19929;-65
2023/03/19 02:43:23;;;;;;;;;;;10.50;99.90;;;;;;5071293;28;19984;-65
2023/03/19 02:45:49;;;;;;;;;;;10.50;99.90;;;;;;5053586;28;19944;-65
2023/03/19 02:48:15;;;;;;;;;;;10.50;99.90;;;;;;5053451;28;19932;-65
2023/03/19 02:50:40;;;;;;;;;;;10.50;99.90;;;;;;5053329;28;19924;-65
2023/03/19 02:53:07;;;;;;;;;;;10.50;99.90;;;;;;5061918;28;19928;-68
2023/03/19 02:55:32;;;;;;;;;;;10.50;99.90;;;;;;5071368;28;19939;-65
2023/03/19 02:57:58;;;;;;;;;;;10.50;99.90;;;;;;5071265;28;19925;-65
2023/03/19 03:00:24;;;;;;;;;;;10.50;99.90;;;;;;5079460;28;20322;-65
2023/03/19 03:02:50;;;;;;;;;;;10.50;99.90;;;;;;5087110;28;19932;-65
2023/03/19 03:05:15;;;;;;;;;;;10.40;99.90;;;;;;5072376;28;20295;-65
2023/03/19 03:07:42;;;;;;;;;;;10.40;99.90;;;;;;5089995;28;19924;-65
2023/03/19 03:10:08;;;;;;;;;;;10.50;99.90;;;;;;5073316;28;19928;-68
2023/03/19 03:12:34;;;;;;;;;;;10.40;99.90;;;;;;5083316;28;19928;-65
2023/03/19 03:15:00;;;;;;;;;;;10.50;99.90;;;;;;5067426;28;19925;-65
2023/03/19 03:17:26;;;;;;;;;;;10.50;99.90;;;;;;5066679;28;19932;-65
2023/03/19 03:19:52;;;;;;;;;;;10.40;99.90;;;;;;5083353;28;19928;-65
2023/03/19 03:22:17;;;;;;;;;;;10.40;99.90;;;;;;5056292;28;20314;-65
2023/03/19 03:24:43;;;;;;;;;;;10.50;99.90;;;;;;5081132;28;19971;-65
2023/03/19 03:27:09;;;;;;;;;;;10.40;99.90;;;;;;5073129;28;19924;-65
2023/03/19 03:29:35;;;;;;;;;;;10.40;99.90;;;;;;5078879;28;19950;-65
2023/03/19 03:32:01;;;;;;;;;;;10.40;99.90;;;;;;5069911;28;19928;-65
2023/03/19 03:34:26;;;;;;;;;;;10.40;99.90;;;;;;5071645;28;19924;-65
2023/03/19 03:36:52;;;;;;;;;;;10.40;99.90;;;;;;5091298;28;19955;-65
2023/03/19 03:39:18;;;;;;;;;;;10.40;99.90;;;;;;5075331;28;19935;-65
2023/03/19 03:41:44;;;;;;;;;;;10.40;99.90;;;;;;5066419;28;20301;-65
2023/03/19 03:44:10;;;;;;;;;;;10.40;99.90;;;;;;5085902;28;19936;-65
2023/03/19 03:46:36;;;;;;;;;;;10.40;99.90;;;;;;5072831;28;19924;-65
2023/03/19 03:49:01;;;;;;;;;;;10.30;99.90;;;;;;5047693;28;20093;-65
2023/03/19 03:51:27;;;;;;;;;;;10.30;99.90;;;;;;5089948;28;20007;-65
2023/03/19 03:53:53;;;;;;;;;;;10.40;99.90;;;;;;5078300;28;19928;-65
2023/03/19 03:56:18;;;;;;;;;;;10.40;99.90;;;;;;5046703;28;19935;-64
2023/03/19 03:58:44;;;;;;;;;;;10.30;99.90;;;;;;5070512;28;19988;-65
2023/03/19 04:01:14;;;;;;;;;;;10.40;99.90;;;;;;5070746;28;19947;-64
2023/03/19 04:03:40;;;;;;;;;;;10.40;99.90;;;;;;5070778;28;19932;-65
2023/03/19 04:06:05;;;;;;;;;;;10.40;99.90;;;;;;5070011;28;19924;-64
2023/03/19 04:08:31;;;;;;;;;;;10.40;99.90;;;;;;5052210;28;19931;-65
2023/03/19 04:10:57;;;;;;;;;;;10.40;99.90;;;;;;5070249;28;19947;-67
2023/03/19 04:13:22;;;;;;;;;;;10.40;99.90;;;;;;5070188;28;19931;-65
2023/03/19 04:15:48;;;;;;;;;;;10.40;99.90;;;;;;5070254;28;19932;-65
2023/03/19 04:18:14;;;;;;;;;;;10.30;99.90;;;;;;5048082;28;19936;-67
2023/03/19 04:20:40;;;;;;;;;;;10.40;99.90;;;;;;5069846;28;19936;-66
2023/03/19 04:23:05;;;;;;;;;;;10.40;99.90;;;;;;5069141;28;19924;-66
2023/03/19 04:25:31;;;;;;;;;;;10.40;99.90;;;;;;5052816;28;20286;-65
2023/03/19 04:27:57;;;;;;;;;;;10.30;99.90;;;;;;5056326;28;20623;-65
2023/03/19 04:30:23;;;;;;;;;;;10.30;99.90;;;;;;5064646;28;20346;-65
2023/03/19 04:32:48;;;;;;;;;;;10.40;99.90;;;;;;5069882;28;19932;-64
2023/03/19 04:35:14;;;;;;;;;;;10.30;99.90;;;;;;5070270;28;20270;-65
2023/03/19 04:37:40;;;;;;;;;;;10.30;99.90;;;;;;5053860;28;20012;-64
2023/03/19 04:40:06;;;;;;;;;;;10.30;99.90;;;;;;5051884;28;19936;-65
2023/03/19 04:42:32;;;;;;;;;;;10.30;99.90;;;;;;5043467;28;19928;-65
2023/03/19 04:44:57;;;;;;;;;;;10.30;99.90;;;;;;5069739;28;19925;-65
2023/03/19 04:47:23;;;;;;;;;;;10.30;99.90;;;;;;5069656;28;20382;-67
2023/03/19 04:49:49;;;;;;;;;;;10.30;99.90;;;;;;5070109;28;20062;-64
2023/03/19 04:52:14;;;;;;;;;;;10.30;99.90;;;;;;5051988;28;19936;-64
2023/03/19 04:54:40;;;;;;;;;;;10.30;99.90;;;;;;5058817;28;19929;-64
2023/03/19 04:57:05;;;;;;;;;;;10.20;99.90;;;;;;5065165;28;19967;-64
2023/03/19 04:59:31;;;;;;;;;;;10.30;99.90;;;;;;5051956;28;19933;-65
2023/03/19 05:01:57;;;;;;;;;;;10.30;99.90;;;;;;5072074;28;20074;-65
2023/03/19 05:04:22;;;;;;;;;;;10.30;99.90;;;;;;5073708;28;19978;-64
2023/03/19 05:06:49;;;;;;;;;;;10.30;99.90;;;;;;5055551;28;20040;-64
2023/03/19 05:09:14;;;;;;;;;;;10.30;99.90;;;;;;5056596;28;19929;-64
2023/03/19 05:11:40;;;;;;;;;;;10.20;99.90;;;;;;5055248;28;19931;-64
2023/03/19 05:14:06;;;;;;;;;;;10.30;99.90;;;;;;5055756;28;19967;-64
2023/03/19 05:16:31;;;;;;;;;;;10.30;99.90;;;;;;5073195;28;20397;-64
2023/03/19 05:18:57;;;;;;;;;;;10.30;99.90;;;;;;5039931;28;19924;-64
2023/03/19 05:21:23;;;;;;;;;;;10.30;99.90;;;;;;5054865;28;19935;-64
2023/03/19 05:23:51;;;;;;;;;;;10.20;99.90;;;;;;5072235;28;19928;-64
2023/03/19 05:26:17;;;;;;;;;;;10.20;99.90;;;;;;5073196;28;19935;-64
2023/03/19 05:28:43;;;;;;;;;;;10.20;99.90;;;;;;5072453;28;19925;-64
2023/03/19 05:31:09;;;;;;;;;;;10.20;99.90;;;;;;5055117;28;19932;-64
2023/03/19 05:33:35;;;;;;;;;;;10.20;99.90;;;;;;5071263;28;19933;-65
2023/03/19 05:36:00;;;;;;;;;;;10.20;99.90;;;;;;5073122;28;19947;-64
2023/03/19 05:38:26;;;;;;;;;;;10.10;99.90;;;;;;5055281;28;19924;-65
2023/03/19 05:40:51;;;;;;;;;;;10.10;99.90;;;;;;5071826;28;20035;-65
2023/03/19 05:43:17;;;;;;;;;;;10.20;99.90;;;;;;5071732;28;19925;-65
2023/03/19 05:45:48;;;;;;;;;;;10.20;99.90;;;;;;5037692;28;20401;-64
2023/03/19 05:48:14;;;;;;;;;;;10.20;99.90;;;;;;5055746;28;19931;-64
2023/03/19 05:50:41;;;;;;;;;;;10.10;99.90;;;;;;5072015;28;19944;-64
2023/03/19 05:53:06;;;;;;;;;;;10.10;99.90;;;;;;5072780;28;19925;-64
2023/03/19 05:55:32;;;;;;;;;;;10.00;99.90;;;;;;5072042;28;21084;-67
2023/03/19 05:57:58;;;;;;;;;;;9.90;99.90;;;;;;5038012;28;19924;-64
2023/03/19 06:00:23;;;;;;;;;;;9.90;99.90;;;;;;5039218;28;19962;-64
2023/03/19 06:02:50;;;;;;;;;;;9.90;99.90;;;;;;5055716;28;19983;-65
2023/03/19 06:05:15;;;;;;;;;;;9.90;99.90;;;;;;5072449;28;19928;-66
2023/03/19 06:07:42;;;;;;;;;;;9.80;99.90;;;;;;5054064;28;20057;-66
2023/03/19 06:10:08;;;;;;;;;;;9.80;99.90;;;;;;5055011;28;19928;-65
2023/03/19 06:12:33;;;;;;;;;;;9.80;99.90;;;;;;5070960;28;20288;-67
2023/03/19 06:14:59;;;;;;;;;;;9.80;99.90;;;;;;5072151;28;19931;-65
2023/03/19 06:17:25;;;;;;;;;;;9.80;99.90;;;;;;5054682;28;20388;-65
2023/03/19 06:19:51;;;;;;;;;;;9.80;99.90;;;;;;5054172;28;20011;-66
2023/03/19 06:22:17;;;;;;;;;;;9.80;99.90;;;;;;5054569;28;20142;-66
2023/03/19 06:24:42;;;;;;;;;;;9.80;99.90;;;;;;5071410;28;19932;-66
2023/03/19 06:27:08;;;;;;;;;;;9.80;99.90;;;;;;5061634;28;19925;-65
2023/03/19 06:29:34;;;;;;;;;;;9.80;99.90;;;;;;5071844;28;19943;-66
2023/03/19 06:31:59;;;;;;;;;;;9.80;99.90;;;;;;5054086;28;20374;-66
2023/03/19 06:34:25;;;;;;;;;;;9.90;99.90;;;;;;5071866;28;20002;-65
2023/03/19 06:36:52;;;;;;;;;;;9.90;99.90;;;;;;5054656;28;19972;-65
2023/03/19 06:39:18;;;;;;;;;;;10.00;99.90;;;;;;5071957;28;19924;-65
2023/03/19 06:41:44;;;;;;;;;;;10.00;99.90;;;;;;5053297;28;19935;-66
2023/03/19 06:44:10;;;;;;;;;;;10.10;99.90;;;;;;5071596;28;20393;-65
2023/03/19 06:46:36;;;;;;;;;;;10.10;99.90;;;;;;5058584;28;19935;-66
2023/03/19 06:49:01;;;;;;;;;;;10.10;99.90;;;;;;5070573;28;20039;-66
2023/03/19 06:51:27;;;;;;;;;;;10.20;99.90;;;;;;5071039;28;19935;-66
2023/03/19 06:53:53;;;;;;;;;;;10.20;99.90;;;;;;5036514;28;19931;-66
2023/03/19 06:56:18;;;;;;;;;;;10.30;99.90;;;;;;5054258;28;19968;-66
2023/03/19 06:58:44;;;;;;;;;;;10.40;99.90;;;;;;5052971;28;19971;-66
2023/03/19 07:01:10;;;;;;;;;;;10.40;99.90;;;;;;5036688;28;19924;-66
2023/03/19 07:03:35;;;;;;;;;;;10.50;99.90;;;;;;5053767;28;19929;-66
2023/03/19 07:06:01;;;;;;;;;;;10.60;99.90;;;;;;5070692;28;19951;-67
2023/03/19 07:08:28;;;;;;;;;;;10.70;99.90;;;;;;5070762;28;19924;-65
2023/03/19 07:10:55;;;;;;;;;;;10.80;99.90;;;;;;5053058;28;20689;-65
2023/03/19 07:13:21;;;;;;;;;;;11.10;99.90;;;;;;5036920;28;20007;-67
2023/03/19 07:15:46;;;;;;;;;;;11.50;99.90;;;;;;5041034;28;19924;-66
2023/03/19 07:18:12;;;;;;;;;;;11.70;99.90;;;;;;5052904;28;19925;-66
2023/03/19 07:20:37;;;;;;;;;;;12.10;99.90;;;;;;5053325;28;19928;-66
2023/03/19 07:23:03;;;;;;;;;;;12.70;99.90;;;;;;5070270;28;20115;-66
2023/03/19 07:25:29;;;;;;;;;;;13.10;99.90;;;;;;5070013;28;19931;-66
2023/03/19 07:27:54;;;;;;;;;;;13.60;99.90;;;;;;5067607;28;19932;-65
2023/03/19 07:30:20;;;;;;;;;;;14.00;99.90;;;;;;5070429;28;19931;-66
2023/03/19 07:32:46;;;;;;;;;;;14.50;99.90;;;;;;5070618;28;19924;-68
2023/03/19 07:35:13;;;;;;;;;;;15.00;99.90;;;;;;5053028;28;20011;-66
2023/03/19 07:37:38;;;;;;;;;;;15.70;99.90;;;;;;5070410;28;19948;-66
2023/03/19 07:40:04;;;;;;;;;;;16.30;99.90;;;;;;5069721;28;19928;-66
2023/03/19 07:42:30;;;;;;;;;;;16.80;99.90;;;;;;5053382;28;19929;-66
2023/03/19 07:44:55;;;;;;;;;;;17.10;99.90;;;;;;5082224;28;19933;-66
2023/03/19 07:47:21;;;;;;;;;;;17.40;99.90;;;;;;5070397;28;19944;-66
2023/03/19 07:49:46;;;;;;;;;;;17.60;99.90;;;;;;5069427;28;19924;-66
2023/03/19 07:52:13;;;;;;;;;;;17.80;99.90;;;;;;5073581;28;20015;-66
2023/03/19 07:54:38;;;;;;;;;;;18.00;99.90;;;;;;5059129;28;19974;-66
2023/03/19 07:57:04;;;;;;;;;;;18.30;99.90;;;;;;5052087;28;19932;-67
2023/03/19 07:59:30;;;;;;;;;;;18.60;99.90;;;;;;5065532;28;19935;-66
2023/03/19 08:01:55;;;;;;;;;;;19.20;99.90;;;;;;5056544;28;19929;-65
2023/03/19 08:04:21;;;;;;;;;;;19.40;99.90;;;;;;5058727;28;20362;-66
2023/03/19 08:06:47;;;;;;;;;;;19.30;99.90;;;;;;5084453;28;19924;-65
2023/03/19 08:09:13;;;;;;;;;;;18.90;99.90;;;;;;5079198;28;19928;-66
2023/03/19 08:11:39;;;;;;;;;;;18.30;99.90;;;;;;5084401;28;20000;-66
2023/03/19 08:14:04;;;;;;;;;;;17.80;99.90;;;;;;5036480;28;19928;-65
2023/03/19 08:16:30;;;;;;;;;;;17.00;99.90;;;;;;5069970;28;20297;-65
2023/03/19 08:18:55;;;;;;;;;;;16.20;99.90;;;;;;5069590;28;20055;-66
2023/03/19 08:21:21;;;;;;;;;;;15.80;99.90;;;;;;5070437;28;19928;-66
2023/03/19 08:23:47;;;;;;;;;;;16.00;99.90;;;;;;5035874;28;19929;-66
2023/03/19 08:26:12;;;;;;;;;;;16.10;99.90;;;;;;5050953;28;19959;-65
2023/03/19 08:28:38;;;;;;;;;;;16.30;99.90;;;;;;5070198;28;20058;-66
2023/03/19 08:31:11;;;;;;;;;;;16.40;99.90;;;;;;5074671;28;19925;-67
2023/03/19 08:33:37;;;;;;;;;;;16.60;99.90;;;;;;5035806;28;20014;-66
2023/03/19 08:36:07;;;;;;;;;;;17.10;99.90;;;;;;5069852;28;20007;-67
2023/03/19 08:38:32;;;;;;;;;;;17.20;99.90;;;;;;5073590;28;20396;-66
2023/03/19 08:41:01;;;;;;;;;;;16.90;99.90;;;;;;5073014;28;19928;-66
2023/03/19 08:43:27;;;;;;;;;;;16.40;99.90;;;;;;5073955;28;20014;-66
2023/03/19 08:45:52;;;;;;;;;;;16.00;99.90;;;;;;5074667;28;19928;-66
2023/03/19 08:48:18;;;;;;;;;;;15.50;99.90;;;;;;5080663;28;20376;-67
2023/03/19 08:50:44;;;;;;;;;;;15.20;99.90;;;;;;5057101;28;19928;-65
2023/03/19 08:53:09;;;;;;;;;;;15.00;99.90;;;;;;5056982;28;19928;-65
2023/03/19 08:55:35;;;;;;;;;;;14.80;99.90;;;;;;5056163;28;19932;-65
2023/03/19 08:58:01;;;;;;;;;;;14.60;99.90;;;;;;5073491;28;20024;-66
2023/03/19 09:00:26;;;;;;;;;;;14.50;99.90;;;;;;5056735;28;19924;-66
2023/03/19 09:02:52;;;;;;;;;;;14.50;99.90;;;;;;5055681;28;20292;-66
2023/03/19 09:05:21;;;;;;;;;;;14.50;99.90;;;;;;5061181;28;19986;-66
2023/03/19 09:07:47;;;;;;;;;;;14.40;99.90;;;;;;5056096;28;19924;-66
2023/03/19 09:10:12;;;;;;;;;;;14.30;99.90;;;;;;5055113;28;20293;-66
2023/03/19 09:12:38;;;;;;;;;;;14.20;99.90;;;;;;5073466;28;19925;-66
2023/03/19 09:15:04;;;;;;;;;;;14.20;99.90;;;;;;5055161;28;19986;-66
2023/03/19 09:17:29;;;;;;;;;;;14.20;99.90;;;;;;5055517;28;20326;-66
2023/03/19 09:19:55;;;;;;;;;;;14.40;99.90;;;;;;5073622;28;20353;-66
2023/03/19 09:22:20;;;;;;;;;;;14.60;99.90;;;;;;5072496;28;19983;-65
2023/03/19 09:24:46;;;;;;;;;;;14.60;99.90;;;;;;5072842;28;20061;-65
2023/03/19 09:27:12;;;;;;;;;;;14.60;99.90;;;;;;5072874;28;19932;-65
2023/03/19 09:29:37;;;;;;;;;;;14.50;99.90;;;;;;5071663;28;19924;-66
2023/03/19 09:32:03;;;;;;;;;;;14.30;99.90;;;;;;5072930;28;19924;-68
2023/03/19 09:34:28;;;;;;;;;;;14.20;99.90;;;;;;5067941;28;19968;-66
2023/03/19 09:36:54;;;;;;;;;;;14.20;99.90;;;;;;5072662;28;19994;-65
2023/03/19 09:39:20;;;;;;;;;;;14.10;99.90;;;;;;5072362;28;19976;-64
2023/03/19 09:42:04;;;;;;;;;;;14.20;99.90;;;;;;5054785;28;19932;-65
2023/03/19 09:44:33;;;;;;;;;;;14.10;99.90;;;;;;5062284;28;19932;-65
2023/03/19 09:46:59;;;;;;;;;;;14.00;99.90;;;;;;5067334;28;20046;-65
2023/03/19 09:49:27;;;;;;;;;;;14.00;99.90;;;;;;5071767;28;20068;-64
2023/03/19 09:51:56;;;;;;;;;;;14.00;99.90;;;;;;5072695;28;20216;-65
2023/03/19 09:54:26;;;;;;;;;;;14.00;99.90;;;;;;5054022;28;19981;-65
2023/03/19 09:56:52;;;;;;;;;;;14.10;99.90;;;;;;5072592;28;20289;-65
2023/03/19 09:59:18;;;;;;;;;;;14.10;99.90;;;;;;5071823;28;19929;-65
2023/03/19 10:01:48;;;;;;;;;;;14.20;99.90;;;;;;5072448;28;20003;-66
2023/03/19 10:04:23;;;;;;;;;;;14.20;99.90;;;;;;5052943;28;19936;-64
2023/03/19 10:06:52;;;;;;;;;;;14.10;99.90;;;;;;5076041;28;19929;-64
2023/03/19 10:09:32;;;;;;;;;;;14.10;99.90;;;;;;5053743;28;19925;-65
2023/03/19 10:12:12;;;;;;;;;;;14.10;99.90;;;;;;5054451;28;19924;-65
2023/03/19 10:14:57;;;;;;;;;;;14.10;99.90;;;;;;5060198;28;19932;-65
2023/03/19 10:17:29;;;;;;;;;;;14.20;99.90;;;;;;5069035;28;20392;-66
2023/03/19 10:20:27;;;;;;;;;;;14.00;99.90;;;;;;5071965;28;19933;-65
2023/03/19 10:22:58;;;;;;;;;;;14.00;99.90;;;;;;5008615;28;19979;-65
2023/03/19 10:25:26;;;;;;;;;;;13.90;99.90;;;;;;5057667;28;19963;-64
2023/03/19 10:27:57;;;;;;;;;;;13.90;99.90;;;;;;5054037;28;20078;-66
2023/03/19 10:30:23;;;;;;;;;;;13.90;99.90;;;;;;5071220;28;19928;-65
2023/03/19 10:32:58;;;;;;;;;;;13.90;99.90;;;;;;5071333;28;19936;-65
2023/03/19 10:35:36;;;;;;;;;;;13.90;99.90;;;;;;5070211;28;19928;-66
2023/03/19 10:38:14;;;;;;;;;;;14.00;99.90;;;;;;5054669;28;19925;-67
2023/03/19 10:40:55;;;;;;;;;;;14.00;99.90;;;;;;5056614;28;19928;-67
2023/03/19 10:43:22;;;;;;;;;;;14.00;99.90;;;;;;5053556;28;20332;-67
2023/03/19 10:45:48;;;;;;;;;;;14.00;99.90;;;;;;5040651;28;19932;-67
2023/03/19 10:48:17;;;;;;;;;;;14.10;99.90;;;;;;5071474;28;19928;-71
2023/03/19 10:50:51;;;;;;;;;;;14.00;99.90;;;;;;5046754;28;20019;-67
2023/03/19 10:53:17;;;;;;;;;;;14.00;99.90;;;;;;5068649;28;19925;-72
2023/03/19 10:55:56;;;;;;;;;;;14.10;99.90;;;;;;5056173;28;19931;-67
2023/03/19 10:58:24;;;;;;;;;;;14.10;99.90;;;;;;5066955;28;19936;-67
2023/03/19 11:00:55;;;;;;;;;;;14.10;99.90;;;;;;5058186;28;19929;-67
2023/03/19 11:03:33;;;;;;;;;;;14.20;99.90;;;;;;5060950;28;19928;-68
2023/03/19 11:06:22;;;;;;;;;;;14.10;99.90;;;;;;5071305;28;20344;-66
2023/03/19 11:09:14;;;;;;;;;;;14.10;99.90;;;;;;5058558;28;19928;-67
2023/03/19 11:11:46;;;;;;;;;;;14.10;99.90;;;;;;5066373;28;20023;-66
2023/03/19 11:14:15;;;;;;;;;;;14.20;99.90;;;;;;5037500;28;19928;-66
2023/03/19 11:16:48;;;;;;;;;;;14.20;99.90;;;;;;5070674;28;19963;-66
2023/03/19 11:19:18;;;;;;;;;;;14.30;99.90;;;;;;5070632;28;19978;-68
2023/03/19 11:21:52;;;;;;;;;;;14.20;99.90;;;;;;5052674;28;20019;-66
2023/03/19 11:24:18;;;;;;;;;;;14.10;99.90;;;;;;5051732;28;19935;-66
2023/03/19 11:26:52;;;;;;;;;;;14.10;99.90;;;;;;5053424;28;20418;-65
2023/03/19 11:29:18;;;;;;;;;;;14.00;99.90;;;;;;5070456;28;19924;-66
2023/03/19 11:31:47;;;;;;;;;;;13.80;99.90;;;;;;5069904;28;19928;-66
2023/03/19 11:34:27;;;;;;;;;;;13.70;99.90;;;;;;5070736;28;19924;-68
2023/03/19 11:37:05;;;;;;;;;;;13.80;99.90;;;;;;5060676;28;19925;-69
2023/03/19 11:39:34;;;;;;;;;;;13.80;99.90;;;;;;5072153;28;19924;-65
2023/03/19 11:42:18;;;;;;;;;;;13.90;99.90;;;;;;5060354;28;19925;-66
2023/03/19 11:44:44;;;;;;;;;;;14.00;99.90;;;;;;5076937;28;19934;-65
2023/03/19 11:47:33;;;;;;;;;;;14.00;99.90;;;;;;5070952;28;19925;-66
2023/03/19 11:50:05;;;;;;;;;;;14.00;99.90;;;;;;5024219;28;19951;-66
2023/03/19 11:52:55;;;;;;;;;;;14.00;99.90;;;;;;5070006;28;19932;-67
2023/03/19 11:55:30;;;;;;;;;;;14.00;99.90;;;;;;5059129;28;20051;-66
2023/03/19 11:58:11;;;;;;;;;;;14.00;99.90;;;;;;5069445;28;19928;-65
2023/03/19 12:00:49;;;;;;;;;;;14.00;99.90;;;;;;5054628;28;19929;-66
2023/03/19 12:03:15;;;;;;;;;;;13.90;99.90;;;;;;5069137;28;20319;-67
2023/03/19 12:05:46;;;;;;;;;;;14.00;99.90;;;;;;5069335;28;20027;-67
2023/03/19 12:08:15;;;;;;;;;;;14.10;99.90;;;;;;5070196;28;19928;-66
2023/03/19 12:10:44;;;;;;;;;;;14.00;99.90;;;;;;5058581;28;19968;-66
2023/03/19 12:13:15;;;;;;;;;;;14.00;99.90;;;;;;5073543;28;19935;-66
2023/03/19 12:15:45;;;;;;;;;;;14.00;99.90;;;;;;5073307;28;19928;-66
2023/03/19 12:18:19;;;;;;;;;;;14.00;99.90;;;;;;5074446;28;19931;-67
2023/03/19 12:20:51;;;;;;;;;;;13.90;99.90;;;;;;5052705;28;20327;-66
2023/03/19 12:23:26;;;;;;;;;;;13.80;99.90;;;;;;5071944;28;19925;-66
2023/03/19 12:25:57;;;;;;;;;;;13.80;99.90;;;;;;5066380;28;20043;-66
2023/03/19 12:28:25;;;;;;;;;;;13.80;99.90;;;;;;5079894;28;19936;-65
2023/03/19 12:30:50;;;;;;;;;;;13.80;99.90;;;;;;5073208;28;20145;-65
2023/03/19 12:33:36;;;;;;;;;;;13.90;99.90;;;;;;5064410;28;20042;-66
2023/03/19 12:36:04;;;;;;;;;;;13.90;99.90;;;;;;5057084;28;19978;-66
2023/03/19 12:38:29;;;;;;;;;;;13.90;99.90;;;;;;5074118;28;19928;-65
2023/03/19 12:40:58;;;;;;;;;;;13.90;99.90;;;;;;5068001;28;19935;-65
2023/03/19 12:43:26;;;;;;;;;;;13.90;99.90;;;;;;5087109;28;19960;-66
2023/03/19 12:45:58;;;;;;;;;;;13.90;99.90;;;;;;5087452;28;20544;-65
2023/03/19 12:48:26;;;;;;;;;;;13.80;99.90;;;;;;5060299;28;19997;-65
2023/03/19 12:50:55;;;;;;;;;;;13.70;99.90;;;;;;5074864;28;20163;-65
2023/03/19 12:53:39;;;;;;;;;;;13.70;99.90;;;;;;5070655;28;19929;-66
2023/03/19 12:56:12;;;;;;;;;;;13.70;99.90;;;;;;5056276;28;19936;-66
2023/03/19 12:59:06;;;;;;;;;;;13.50;99.90;;;;;;5062601;28;19928;-66
2023/03/19 13:01:33;;;;;;;;;;;13.50;99.90;;;;;;5050522;28;19931;-66
2023/03/19 13:04:07;;;;;;;;;;;13.40;99.90;;;;;;5049498;28;19932;-66
2023/03/19 13:06:37;;;;;;;;;;;13.40;99.90;;;;;;5064039;28;19928;-65
2023/03/19 13:09:05;;;;;;;;;;;13.40;99.90;;;;;;5073578;28;20049;-65
2023/03/19 13:11:38;;;;;;;;;;;13.40;99.90;;;;;;5060439;28;20286;-65
2023/03/19 13:14:27;;;;;;;;;;;13.40;99.90;;;;;;5042104;28;20040;-65
2023/03/19 13:17:08;;;;;;;;;;;13.40;99.90;;;;;;5031826;28;19939;-65
2023/03/19 13:19:41;;;;;;;;;;;13.40;99.90;;;;;;5071606;28;19924;-65
2023/03/19 13:22:09;;;;;;;;;;;13.40;99.90;;;;;;5067629;28;20431;-65
2023/03/19 13:24:39;;;;;;;;;;;13.30;99.90;;;;;;5078239;28;19940;-66
2023/03/19 13:27:06;;;;;;;;;;;13.30;99.90;;;;;;5070757;28;19939;-65
2023/03/19 13:29:34;;;;;;;;;;;13.20;99.90;;;;;;5056490;28;19935;-65
2023/03/19 13:32:01;;;;;;;;;;;13.20;99.90;;;;;;5061845;28;19932;-66
2023/03/19 13:34:27;;;;;;;;;;;13.20;99.90;;;;;;5058467;28;19924;-65
2023/03/19 13:36:58;;;;;;;;;;;13.10;99.90;;;;;;5065966;28;19989;-65
2023/03/19 13:39:27;;;;;;;;;;;13.10;99.90;;;;;;5059113;28;19951;-67
2023/03/19 13:41:53;;;;;;;;;;;13.10;99.90;;;;;;5067583;28;19936;-64
2023/03/19 13:44:33;;;;;;;;;;;13.10;99.90;;;;;;5054716;28;19925;-68
2023/03/19 13:47:11;;;;;;;;;;;13.20;99.90;;;;;;5040269;28;20369;-68
2023/03/19 13:49:57;;;;;;;;;;;13.20;99.90;;;;;;5068207;28;19925;-67
2023/03/19 13:52:25;;;;;;;;;;;13.20;99.90;;;;;;5060959;28;19924;-65
2023/03/19 13:54:52;;;;;;;;;;;13.10;99.90;;;;;;5073263;28;19932;-67
2023/03/19 13:57:19;;;;;;;;;;;13.00;99.90;;;;;;5077027;28;19928;-65
2023/03/19 13:59:46;;;;;;;;;;;12.90;99.90;;;;;;5061830;28;20019;-65
2023/03/19 14:02:21;;;;;;;;;;;12.90;99.90;;;;;;5069807;28;19985;-65
2023/03/19 14:04:51;;;;;;;;;;;12.90;99.90;;;;;;5072351;28;19924;-64
2023/03/19 14:07:19;;;;;;;;;;;12.80;99.90;;;;;;5071961;28;19931;-65
2023/03/19 14:09:48;;;;;;;;;;;12.80;99.90;;;;;;5063112;28;19929;-65
2023/03/19 14:12:16;;;;;;;;;;;12.70;99.90;;;;;;5054805;28;19930;-64
2023/03/19 14:14:44;;;;;;;;;;;12.70;99.90;;;;;;5066615;28;19925;-66
2023/03/19 14:17:40;;;;;;;;;;;12.60;99.90;;;;;;5038061;28;19931;-65
2023/03/19 14:20:25;;;;;;;;;;;12.60;99.90;;;;;;5044041;28;19947;-64
2023/03/19 14:23:06;;;;;;;;;;;12.50;99.90;;;;;;5078697;28;19994;-64
2023/03/19 14:25:52;;;;;;;;;;;12.50;99.90;;;;;;5065360;28;19925;-64